This is the latest recevied weather packets stored in our database for station/object AG1T-20. If no packets are shown the sender has not sent any weather packets the latest 10 day(s).
| Time | Temp. | Humidity | Pressure | Rain* | Wind** | Luminosity | Snow |
|---|---|---|---|---|---|---|---|
| 1777429204 | 8.33° C | 49% | 1021.3 hPa | 0 mm | - | 4 W/m² | - |
| 1777428605 | 9.44° C | 44% | 1021.3 hPa | 0 mm | - | 8 W/m² | - |
| 1777428004 | 11.11° C | 37% | 1021.3 hPa | 0 mm | - | 13 W/m² | - |
| 1777427404 | 12.78° C | 32% | 1021.4 hPa | 0 mm | - | 22 W/m² | - |
| 1777426804 | 14.44° C | 30% | 1021.4 hPa | 0 mm | - | 26 W/m² | - |
| 1777426204 | 14.44° C | 30% | 1021.4 hPa | 0 mm | - | 31 W/m² | - |
| 1777425605 | 13.33° C | 34% | 1021.4 hPa | 0 mm | - | 35 W/m² | - |
| 1777425005 | 13.89° C | 31% | 1021.4 hPa | 0 mm | - | 39 W/m² | - |
| 1777424404 | 13.33° C | 34% | 1021.4 hPa | 0 mm | - | 44 W/m² | - |
| 1777423804 | 13.33° C | 35% | 1021.4 hPa | 0 mm | - | 51 W/m² | - |
| 1777423204 | 12.78° C | 35% | 1021.4 hPa | 0 mm | - | 39 W/m² | - |
| 1777422604 | 12.78° C | 33% | 1021.4 hPa | 0 mm | - | 50 W/m² | - |
| 1777422005 | 13.89° C | 33% | 1021.4 hPa | 0 mm | - | 81 W/m² | - |
| 1777421405 | 13.33° C | 36% | 1021.4 hPa | 0 mm | - | 100 W/m² | - |
| 1777420804 | 12.22° C | 37% | 1021.4 hPa | 0 mm | - | 126 W/m² | - |
| 1777420205 | 13.89° C | 36% | 1021.5 hPa | 0 mm | - | 178 W/m² | - |
| 1777419605 | 12.22° C | 37% | 1021.5 hPa | 0 mm | - | 248 W/m² | - |
| 1777419004 | 12.22° C | 39% | 1021.5 hPa | 0 mm | - | 200 W/m² | - |
| 1777418404 | 12.78° C | 41% | 1021.5 hPa | 0 mm | - | 362 W/m² | - |
| 1777417804 | 12.22° C | 36% | 1021.5 hPa | 0 mm | - | 177 W/m² | - |
| 1777417204 | 11.67° C | 40% | 1021.5 hPa | 0 mm | - | 207 W/m² | - |
| 1777416604 | 12.22° C | 37% | 1021.6 hPa | 0 mm | - | 199 W/m² | - |
| 1777416005 | 13.33° C | 34% | 1021.6 hPa | 0 mm | - | 442 W/m² | - |
| 1777415404 | 12.78° C | 34% | 1021.6 hPa | 0 mm | - | 459 W/m² | - |
| 1777414804 | 13.33° C | 34% | 1021.6 hPa | 0 mm | - | 480 W/m² | - |
* Rain latest hour (hover to see other rain measurements)
** Current wind speed in m/s (hover to see current wind gust speed)